Time;durP1;ratioP1;P1;durP2;ratioP2;P2;SDS_P1;SDS_P2;PMS_P1;PMS_P2;Temp;Humidity;BMP_temperature;BMP_pressure;BME280_temperature;BME280_humidity;BME280_pressure;Samples;Min_cycle;Max_cycle;Signal;HPM_P1;HPM_P2
2022/02/11 00:01:03;;;;;;;;;;;;;;;2.22;100.00;99324.82;1697478;83;20136;-72
2022/02/11 00:08:40;;;;;;;;;;;;;;;2.22;100.00;99318.20;1697241;84;20181;-70
2022/02/11 00:11:06;;;;;;;;;;;;;;;2.23;100.00;99317.69;1696981;83;20161;-71
2022/02/11 00:13:35;;;;;;;;;;;;;;;2.26;100.00;99322.59;1697358;84;20472;-69
2022/02/11 00:16:02;;;;;;;;;;;;;;;2.27;100.00;99313.10;1697132;83;21753;-69
2022/02/11 00:18:30;;;;;;;;;;;;;;;2.29;100.00;99321.66;1693495;83;20473;-71
2022/02/11 00:20:57;;;;;;;;;;;;;;;2.29;100.00;99318.20;1697764;84;20464;-70
2022/02/11 00:23:24;;;;;;;;;;;;;;;2.30;100.00;99321.98;1697551;84;20505;-69
2022/02/11 00:25:59;;;;;;;;;;;;;;;2.31;100.00;99320.14;1697984;84;20089;-70
2022/02/11 00:31:08;;;;;;;;;;;;;;;2.29;100.00;99324.31;1676026;84;21414;-70
2022/02/11 00:33:25;;;;;;;;;;;;;;;2.28;100.00;99324.02;1693937;83;20222;-70
2022/02/11 00:35:55;;;;;;;;;;;;;;;2.26;100.00;99323.41;1696981;83;20181;-69
2022/02/11 00:38:24;;;;;;;;;;;;;;;2.24;100.00;99328.08;1696789;84;20143;-69
2022/02/11 01:04:47;;;;;;;;;;;;;;;2.35;100.00;99314.23;1660282;85;20162;-70
2022/02/11 01:07:13;;;;;;;;;;;;;;;2.38;100.00;99320.95;1660919;85;21178;-71
2022/02/11 01:09:41;;;;;;;;;;;;;;;2.39;100.00;99317.78;1651435;86;20145;-72
2022/02/11 01:12:09;;;;;;;;;;;;;;;2.40;100.00;99316.75;1672151;85;20180;-70
2022/02/11 01:14:39;;;;;;;;;;;;;;;2.42;100.00;99314.20;1677584;85;20639;-69
2022/02/11 02:06:12;;;;;;;;;;;;;;;2.45;100.00;99224.23;1644014;87;20186;-69
2022/02/11 02:11:31;;;;;;;;;;;;;;;2.51;100.00;99219.43;1643378;87;20513;-70
2022/02/11 02:24:47;;;;;;;;;;;;;;;2.42;100.00;99216.19;1700989;83;20180;-68
2022/02/11 02:27:33;;;;;;;;;;;;;;;2.41;100.00;99205.81;1722191;83;21815;-70
2022/02/11 02:38:33;;;;;;;;;;;;;;;2.38;100.00;99204.89;1725777;83;20147;-69
2022/02/11 02:57:04;;;;;;;;;;;;;;;2.36;100.00;99205.92;1689368;83;21293;-72
2022/02/11 03:00:18;;;;;;;;;;;;;;;2.36;100.00;99203.80;1689736;83;20232;-70
2022/02/11 03:35:48;;;;;;;;;;;;;;;2.14;100.00;99148.96;1660064;85;21952;-71
2022/02/11 04:21:30;;;;;;;;;;;;;;;2.52;100.00;99121.20;1656341;85;20227;-68
2022/02/11 04:56:27;;;;;;;;;;;;;;;2.77;100.00;99111.98;1655288;85;21172;-71
2022/02/11 05:01:41;;;;;;;;;;;;;;;2.81;100.00;99113.68;1661216;84;20103;-69
2022/02/11 05:04:07;;;;;;;;;;;;;;;2.79;100.00;99109.94;1670189;86;20515;-71
2022/02/11 05:06:35;;;;;;;;;;;;;;;2.78;100.00;99109.63;1670028;84;20486;-72
2022/02/11 05:09:02;;;;;;;;;;;;;;;2.82;100.00;99088.81;1668381;86;21261;-69
2022/02/11 05:11:30;;;;;;;;;;;;;;;2.89;100.00;99111.28;1670523;85;20105;-70
2022/02/11 05:13:57;;;;;;;;;;;;;;;2.92;100.00;99116.18;1670515;84;20122;-70
2022/02/11 05:16:23;;;;;;;;;;;;;;;2.90;100.00;99116.37;1670243;84;20150;-71
2022/02/11 05:18:49;;;;;;;;;;;;;;;2.91;100.00;99115.34;1670640;85;20224;-70
2022/02/11 05:21:17;;;;;;;;;;;;;;;2.95;100.00;99119.72;1670357;84;21207;-70
2022/02/11 05:23:43;;;;;;;;;;;;;;;2.95;100.00;99119.72;1669961;84;20198;-68
2022/02/11 05:26:09;;;;;;;;;;;;;;;2.98;100.00;99126.72;1670089;84;20111;-70
2022/02/11 05:28:35;;;;;;;;;;;;;;;2.96;100.00;99132.77;1670225;84;20147;-71
2022/02/11 05:31:01;;;;;;;;;;;;;;;2.98;100.00;99124.06;1669914;86;20451;-69
2022/02/11 05:33:29;;;;;;;;;;;;;;;3.03;100.00;99130.05;1670097;84;21158;-71
2022/02/11 05:35:58;;;;;;;;;;;;;;;2.97;100.00;99123.78;1639834;86;20097;-71
2022/02/11 05:38:25;;;;;;;;;;;;;;;2.98;100.00;99117.95;1670012;84;20543;-70
2022/02/11 05:40:51;;;;;;;;;;;;;;;2.99;100.00;99121.73;1670182;86;20121;-71
2022/02/11 05:43:17;;;;;;;;;;;;;;;2.98;100.00;99128.04;1669979;86;20173;-70
2022/02/11 05:45:44;;;;;;;;;;;;;;;2.99;100.00;99130.20;1670055;86;21156;-70
2022/02/11 05:48:12;;;;;;;;;;;;;;;2.97;100.00;99126.95;1670355;86;20121;-69
2022/02/11 05:50:39;;;;;;;;;;;;;;;2.94;100.00;99126.03;1669647;84;20108;-70
2022/02/11 05:53:06;;;;;;;;;;;;;;;2.96;100.00;99130.13;1670182;86;20172;-71
2022/02/11 05:55:34;;;;;;;;;;;;;;;2.97;100.00;99137.03;1670456;84;20154;-69
2022/02/11 05:58:02;;;;;;;;;;;;;;;2.90;100.00;99128.31;1665265;84;21876;-71
2022/02/11 06:00:29;;;;;;;;;;;;;;;2.92;100.00;99135.54;1670368;84;20129;-69
2022/02/11 06:02:55;;;;;;;;;;;;;;;2.90;100.00;99135.45;1660804;84;20451;-70
2022/02/11 06:05:23;;;;;;;;;;;;;;;2.87;100.00;99135.38;1660059;85;20292;-71
2022/02/11 06:07:51;;;;;;;;;;;;;;;2.88;100.00;99137.50;1660443;85;20086;-71
2022/02/11 06:10:17;;;;;;;;;;;;;;;2.88;100.00;99133.01;1659200;85;21162;-71
2022/02/11 06:12:44;;;;;;;;;;;;;;;2.87;100.00;99138.02;1660335;85;20179;-71
2022/02/11 06:15:11;;;;;;;;;;;;;;;2.93;100.00;99142.97;1659866;86;20089;-71
2022/02/11 06:17:39;;;;;;;;;;;;;;;2.89;100.00;99128.52;1660558;86;20159;-70
2022/02/11 06:20:08;;;;;;;;;;;;;;;2.94;100.00;99139.28;1660710;86;20156;-71
2022/02/11 06:22:39;;;;;;;;;;;;;;;2.94;100.00;99140.61;1660785;85;20614;-70
2022/02/11 06:25:06;;;;;;;;;;;;;;;2.95;100.00;99147.55;1660334;85;20126;-71
2022/02/11 06:27:34;;;;;;;;;;;;;;;3.01;100.00;99144.03;1658303;84;21018;-70
2022/02/11 06:30:01;;;;;;;;;;;;;;;3.02;100.00;99137.72;1658986;85;20201;-74
2022/02/11 06:32:27;;;;;;;;;;;;;;;3.05;100.00;99153.71;1659059;85;21159;-74
2022/02/11 06:34:56;;;;;;;;;;;;;;;3.09;100.00;99157.57;1658313;86;21413;-73
2022/02/11 06:37:22;;;;;;;;;;;;;;;3.10;100.00;99156.53;1659988;86;20217;-70
2022/02/11 06:39:48;;;;;;;;;;;;;;;3.16;100.00;99166.27;1659698;85;20169;-69
2022/02/11 06:42:15;;;;;;;;;;;;;;;3.20;100.00;99160.32;1660231;86;20105;-68
2022/02/11 06:44:43;;;;;;;;;;;;;;;3.25;100.00;99153.56;1655285;85;20206;-71
2022/02/11 06:47:09;;;;;;;;;;;;;;;3.29;100.00;99167.52;1659711;84;21137;-70
2022/02/11 06:49:36;;;;;;;;;;;;;;;3.31;100.00;99165.46;1662689;84;20329;-72
2022/02/11 06:52:03;;;;;;;;;;;;;;;3.35;100.00;99163.17;1660489;84;20146;-71
2022/02/11 06:54:30;;;;;;;;;;;;;;;3.34;100.00;99166.34;1659476;85;20204;-72
2022/02/11 06:56:57;;;;;;;;;;;;;;;3.33;100.00;99163.41;1663464;84;20422;-73
2022/02/11 06:59:23;;;;;;;;;;;;;;;3.39;100.00;99172.34;1667637;84;21104;-73
2022/02/11 07:01:50;;;;;;;;;;;;;;;3.39;100.00;99170.48;1659593;83;20283;-71
2022/02/11 07:04:17;;;;;;;;;;;;;;;3.37;100.00;99169.08;1659677;85;20148;-74
2022/02/11 07:06:46;;;;;;;;;;;;;;;3.39;100.00;99165.19;1660064;85;20103;-72
2022/02/11 07:09:13;;;;;;;;;;;;;;;3.43;100.00;99168.23;1660033;84;20177;-70
2022/02/11 07:11:42;;;;;;;;;;;;;;;3.45;100.00;99167.48;1678122;84;21526;-72
2022/02/11 07:14:11;;;;;;;;;;;;;;;3.44;100.00;99172.50;1658792;85;20239;-72
2022/02/11 07:16:38;;;;;;;;;;;;;;;3.47;100.00;99170.73;1672068;84;20176;-72
2022/02/11 07:19:04;;;;;;;;;;;;;;;3.50;100.00;99175.59;1659723;84;20148;-71
2022/02/11 07:21:35;;;;;;;;;;;;;;;3.53;100.00;99171.20;1649731;86;20135;-73
2022/02/11 07:24:07;;;;;;;;;;;;;;;3.53;100.00;99170.37;1660753;84;20160;-72
2022/02/11 07:26:34;;;;;;;;;;;;;;;3.57;100.00;99179.53;1658493;86;20162;-72
2022/02/11 07:29:00;;;;;;;;;;;;;;;3.58;100.00;99172.69;1660530;84;20511;-70
2022/02/11 07:31:26;;;;;;;;;;;;;;;3.62;100.00;99177.03;1662891;84;20494;-72
2022/02/11 07:33:54;;;;;;;;;;;;;;;3.64;100.00;99173.66;1658972;84;20160;-70
2022/02/11 07:36:23;;;;;;;;;;;;;;;3.65;100.00;99180.60;1660048;86;21876;-69
2022/02/11 07:38:53;;;;;;;;;;;;;;;3.60;100.00;99180.41;1660003;86;20140;-70
2022/02/11 07:41:19;;;;;;;;;;;;;;;3.65;100.00;99183.26;1660245;86;20092;-73
2022/02/11 07:43:47;;;;;;;;;;;;;;;3.62;100.00;99173.05;1659513;86;20112;-71
2022/02/11 07:46:13;;;;;;;;;;;;;;;3.67;100.00;99185.67;1659580;86;20244;-67
2022/02/11 07:48:40;;;;;;;;;;;;;;;3.67;100.00;99185.67;1659877;84;21206;-73
2022/02/11 07:51:06;;;;;;;;;;;;;;;3.72;100.00;99191.14;1661606;84;20940;-68
2022/02/11 07:53:37;;;;;;;;;;;;;;;3.73;100.00;99184.82;1657721;84;20168;-71
2022/02/11 07:56:13;;;;;;;;;;;;;;;3.75;100.00;99190.70;1666149;84;20239;-72
2022/02/11 07:58:44;;;;;;;;;;;;;;;3.78;100.00;99193.75;1658354;85;20465;-71
2022/02/11 08:01:14;;;;;;;;;;;;;;;3.81;100.00;99199.13;1659547;84;21085;-69
2022/02/11 08:03:41;;;;;;;;;;;;;;;3.83;100.00;99201.06;1659542;86;20179;-68
2022/02/11 08:06:11;;;;;;;;;;;;;;;3.86;100.00;99191.33;1659359;86;20195;-69
2022/02/11 08:08:41;;;;;;;;;;;;;;;3.88;100.00;99199.08;1666233;84;20162;-68
2022/02/11 08:11:10;;;;;;;;;;;;;;;3.90;100.00;99207.13;1660799;84;20223;-68
2022/02/11 08:13:37;;;;;;;;;;;;;;;3.90;100.00;99202.33;1667035;84;21189;-70
2022/02/11 08:16:06;;;;;;;;;;;;;;;3.92;100.00;99205.56;1683678;84;20195;-67
2022/02/11 08:18:33;;;;;;;;;;;;;;;3.96;100.00;99208.89;1696208;84;20103;-70
2022/02/11 08:21:00;;;;;;;;;;;;;;;4.02;100.00;99208.55;1691635;84;20475;-68
2022/02/11 08:23:27;;;;;;;;;;;;;;;4.05;100.00;99207.58;1666797;84;20218;-70
2022/02/11 08:26:01;;;;;;;;;;;;;;;4.09;100.00;99207.94;1679364;84;21801;-71
2022/02/11 08:28:28;;;;;;;;;;;;;;;4.11;100.00;99209.86;1668653;84;20465;-71
2022/02/11 08:30:59;;;;;;;;;;;;;;;4.17;100.00;99215.64;1661453;84;20505;-72
2022/02/11 08:33:25;;;;;;;;;;;;;;;4.21;100.00;99211.49;1657785;86;20143;-71
2022/02/11 08:35:56;;;;;;;;;;;;;;;4.22;100.00;99216.31;1665072;86;20151;-69
2022/02/11 08:38:30;;;;;;;;;;;;;;;4.26;100.00;99216.15;1660362;85;21168;-67
2022/02/11 08:41:00;;;;;;;;;;;;;;;4.34;100.00;99219.06;1637974;86;20096;-70
2022/02/11 08:43:27;;;;;;;;;;;;;;;4.43;100.00;99225.16;1663245;84;20182;-70
2022/02/11 08:45:54;;;;;;;;;;;;;;;4.49;100.00;99226.94;1669152;86;20201;-70
2022/02/11 08:48:20;;;;;;;;;;;;;;;4.45;100.00;99225.75;1663208;86;20527;-71
2022/02/11 08:50:47;;;;;;;;;;;;;;;4.47;100.00;99225.02;1666334;86;21118;-70
2022/02/11 08:53:13;;;;;;;;;;;;;;;4.47;100.00;99209.07;1663304;84;20488;-69
2022/02/11 08:55:40;;;;;;;;;;;;;;;4.49;100.00;99228.27;1660786;84;20154;-72
2022/02/11 08:58:07;;;;;;;;;;;;;;;4.56;100.00;99228.70;1663094;86;20137;-70
2022/02/11 09:00:33;;;;;;;;;;;;;;;4.64;100.00;99231.08;1669533;84;20737;-69
2022/02/11 09:03:00;;;;;;;;;;;;;;;4.65;100.00;99236.16;1663967;84;21175;-72
2022/02/11 09:05:27;;;;;;;;;;;;;;;4.77;100.00;99240.20;1663137;84;20524;-72
2022/02/11 09:07:57;;;;;;;;;;;;;;;4.80;100.00;99235.80;1661073;85;20202;-71
2022/02/11 09:10:26;;;;;;;;;;;;;;;4.85;100.00;99241.75;1660694;85;20579;-69
2022/02/11 09:12:57;;;;;;;;;;;;;;;4.85;100.00;99239.92;1661079;84;20476;-70
2022/02/11 09:15:26;;;;;;;;;;;;;;;4.91;100.00;99248.31;1660414;86;22026;-70
2022/02/11 09:17:53;;;;;;;;;;;;;;;4.97;100.00;99239.95;1660621;86;20146;-69
2022/02/11 09:20:20;;;;;;;;;;;;;;;5.02;100.00;99247.27;1660446;86;20111;-68
2022/02/11 09:22:48;;;;;;;;;;;;;;;5.01;100.00;99254.96;1660500;86;20122;-71
2022/02/11 09:25:14;;;;;;;;;;;;;;;5.00;100.00;99255.98;1633158;88;20194;-70
2022/02/11 09:27:45;;;;;;;;;;;;;;;5.08;100.00;99263.67;1661110;86;21824;-69
2022/02/11 09:30:17;;;;;;;;;;;;;;;5.12;100.00;99262.16;1664768;84;20143;-68
2022/02/11 09:32:45;;;;;;;;;;;;;;;5.06;100.00;99243.93;1662314;85;20220;-70
2022/02/11 09:35:13;;;;;;;;;;;;;;;5.08;100.00;99257.83;1663256;84;20199;-71
2022/02/11 09:37:40;;;;;;;;;;;;;;;5.03;100.00;99264.86;1657021;84;20228;-72
2022/02/11 09:40:11;;;;;;;;;;;;;;;5.02;100.00;99264.55;1659608;85;21230;-71
2022/02/11 09:42:39;;;;;;;;;;;;;;;5.06;100.00;99255.91;1658764;86;20139;-72
2022/02/11 09:45:10;;;;;;;;;;;;;;;5.01;100.00;99268.27;1659767;84;20210;-69
2022/02/11 09:47:37;;;;;;;;;;;;;;;5.01;100.00;99262.42;1658864;86;20218;-70
2022/02/11 09:50:06;;;;;;;;;;;;;;;5.06;100.00;99275.05;1667332;84;20123;-69
2022/02/11 09:52:40;;;;;;;;;;;;;;;5.04;100.00;99267.80;1656621;86;21811;-69
2022/02/11 09:57:54;;;;;;;;;;;;;;;5.02;100.00;99270.71;1659550;84;20103;-70
2022/02/11 10:00:24;;;;;;;;;;;;;;;5.02;100.00;99285.34;1659622;84;20531;-70
2022/02/11 10:02:57;;;;;;;;;;;;;;;4.97;100.00;99277.72;1644549;85;20525;-69
2022/02/11 10:05:26;;;;;;;;;;;;;;;5.05;100.00;99284.08;1687212;84;21093;-71
2022/02/11 10:07:55;;;;;;;;;;;;;;;5.14;100.00;99288.87;1685609;84;20111;-70
2022/02/11 10:10:42;;;;;;;;;;;;;;;5.32;100.00;99292.52;1668763;84;20157;-75
2022/02/11 10:13:19;;;;;;;;;;;;;;;5.46;100.00;99289.95;1670038;85;20175;-72
2022/02/11 10:15:49;;;;;;;;;;;;;;;5.55;100.00;99299.24;1668706;85;20145;-71
2022/02/11 10:18:25;;;;;;;;;;;;;;;5.51;100.00;99298.58;1670042;85;20461;-71
2022/02/11 10:20:56;;;;;;;;;;;;;;;5.51;100.00;99283.95;1670953;84;20106;-70
2022/02/11 10:23:25;;;;;;;;;;;;;;;5.45;100.00;99308.30;1664924;85;20150;-68
2022/02/11 10:26:08;;;;;;;;;;;;;;;5.43;100.00;99291.73;1669233;85;20176;-70
2022/02/11 10:28:39;;;;;;;;;;;;;;;5.42;100.00;99298.11;1671467;85;20507;-69
2022/02/11 10:31:15;;;;;;;;;;;;;;;5.42;100.00;99297.30;1667083;85;21162;-69
2022/02/11 10:33:56;;;;;;;;;;;;;;;5.62;100.00;99303.67;1662884;85;20154;-66
2022/02/11 10:36:29;;;;;;;;;;;;;;;6.36;100.00;99259.63;1672614;85;20174;-69
2022/02/11 10:39:06;;;;;;;;;;;;;;;6.16;100.00;99306.63;1685103;84;20152;-70
2022/02/11 10:41:34;;;;;;;;;;;;;;;6.07;100.00;99313.33;1670897;84;20148;-70
2022/02/11 10:44:06;;;;;;;;;;;;;;;6.10;100.00;99307.56;1669765;85;21153;-69
2022/02/11 10:46:35;;;;;;;;;;;;;;;5.92;100.00;99313.74;1663873;85;20519;-70
2022/02/11 10:49:02;;;;;;;;;;;;;;;5.76;100.00;99316.56;1677957;84;20154;-68
2022/02/11 10:51:29;;;;;;;;;;;;;;;5.61;100.00;99321.50;1687190;84;20136;-69
2022/02/11 10:53:57;;;;;;;;;;;;;;;5.59;100.00;99323.58;1675085;84;20206;-67
2022/02/11 10:56:25;;;;;;;;;;;;;;;5.57;100.00;99325.65;1678175;84;21151;-70
2022/02/11 10:58:53;;;;;;;;;;;;;;;5.48;100.00;99317.16;1681653;85;20515;-68
2022/02/11 11:01:30;;;;;;;;;;;;;;;5.45;100.00;99318.14;1662787;85;20242;-70
2022/02/11 11:03:58;;;;;;;;;;;;;;;5.54;100.00;99324.78;1656063;85;20210;-71
2022/02/11 11:06:46;;;;;;;;;;;;;;;5.51;100.00;99321.21;1649410;84;20222;-68
2022/02/11 11:09:18;;;;;;;;;;;;;;;5.55;100.00;99324.53;1633980;86;21118;-66
2022/02/11 11:11:45;;;;;;;;;;;;;;;5.62;100.00;99329.77;1637875;85;20240;-69
2022/02/11 11:14:15;;;;;;;;;;;;;;;5.62;100.00;99323.64;1633185;85;20186;-68
2022/02/11 11:16:43;;;;;;;;;;;;;;;5.76;100.00;99333.88;1639299;85;20572;-72
2022/02/11 11:19:10;;;;;;;;;;;;;;;5.89;100.00;99338.71;1643595;85;20152;-70
2022/02/11 11:21:39;;;;;;;;;;;;;;;6.47;100.00;99338.00;1640700;85;20761;-70
2022/02/11 11:24:06;;;;;;;;;;;;;;;6.90;100.00;99346.13;1636832;86;20451;-72
2022/02/11 11:26:34;;;;;;;;;;;;;;;7.13;100.00;99343.12;1674422;84;20138;-68
2022/02/11 11:29:12;;;;;;;;;;;;;;;7.29;100.00;99347.72;1646553;83;20807;-70
2022/02/11 11:31:38;;;;;;;;;;;;;;;7.29;100.00;99345.05;1668750;84;20175;-70
2022/02/11 11:34:18;;;;;;;;;;;;;;;7.45;100.00;99343.50;1680092;83;22080;-70
2022/02/11 11:36:47;;;;;;;;;;;;;;;7.85;100.00;99344.75;1680172;84;20515;-72
2022/02/11 11:39:16;;;;;;;;;;;;;;;7.99;100.00;99332.44;1679323;84;20186;-72
2022/02/11 11:41:42;;;;;;;;;;;;;;;7.67;100.00;99334.30;1680084;84;20194;-71
2022/02/11 11:44:29;;;;;;;;;;;;;;;7.33;100.00;99343.54;1685808;83;20150;-71
2022/02/11 11:47:02;;;;;;;;;;;;;;;7.52;100.00;99346.81;1673295;84;21113;-72
2022/02/11 11:49:40;;;;;;;;;;;;;;;7.82;100.00;99343.11;1677023;84;20504;-68
2022/02/11 11:52:07;;;;;;;;;;;;;;;7.68;100.00;99351.41;1682103;83;20095;-70
2022/02/11 11:54:34;;;;;;;;;;;;;;;7.68;100.00;99349.27;1676560;83;20155;-70
2022/02/11 11:57:08;;;;;;;;;;;;;;;7.74;100.00;99350.95;1675188;84;20184;-66
2022/02/11 11:59:49;;;;;;;;;;;;;;;8.01;100.00;99354.36;1680454;83;21582;-71
2022/02/11 12:02:21;;;;;;;;;;;;;;;7.76;100.00;99348.86;1689575;84;20106;-71
2022/02/11 12:04:54;;;;;;;;;;;;;;;7.29;100.00;99357.88;1686471;81;20429;-69
2022/02/11 12:07:23;;;;;;;;;;;;;;;6.71;100.00;99352.64;1716665;82;20171;-70
2022/02/11 12:09:53;;;;;;;;;;;;;;;6.41;100.00;99357.58;1749254;81;20156;-70
2022/02/11 12:12:22;;;;;;;;;;;;;;;5.99;100.00;99352.31;1754200;81;21140;-69
2022/02/11 12:14:52;;;;;;;;;;;;;;;5.89;100.00;99354.69;1754101;81;20104;-69
2022/02/11 12:17:22;;;;;;;;;;;;;;;5.68;100.00;99350.16;1754109;81;20121;-69
2022/02/11 12:19:50;;;;;;;;;;;;;;;5.85;100.00;99352.98;1758046;81;20127;-69
2022/02/11 12:22:20;;;;;;;;;;;;;;;6.30;100.00;99356.54;1739572;81;20486;-68
2022/02/11 12:27:36;;;;;;;;;;;;;;;5.82;100.00;99356.64;1722789;83;20190;-68
2022/02/11 12:30:08;;;;;;;;;;;;;;;5.92;100.00;99361.70;1689203;83;20133;-72
2022/02/11 12:32:40;;;;;;;;;;;;;;;5.95;100.00;99361.78;1668133;84;20144;-69
2022/02/11 12:35:13;;;;;;;;;;;;;;;5.91;100.00;99362.75;1667623;84;20141;-70
2022/02/11 12:37:42;;;;;;;;;;;;;;;5.95;100.00;99363.13;1668520;86;21144;-73
2022/02/11 12:40:16;;;;;;;;;;;;;;;5.89;100.00;99360.02;1668128;84;20142;-70
2022/02/11 12:42:45;;;;;;;;;;;;;;;5.87;100.00;99374.89;1668616;84;20163;-70
2022/02/11 12:45:18;;;;;;;;;;;;;;;6.32;100.00;99371.78;1667951;85;20167;-73
2022/02/11 12:47:46;;;;;;;;;;;;;;;6.72;100.00;99372.95;1669490;84;20124;-71
2022/02/11 12:50:18;;;;;;;;;;;;;;;7.24;100.00;99376.46;1668091;85;21157;-72
2022/02/11 12:52:49;;;;;;;;;;;;;;;7.73;100.00;99377.41;1671784;85;20175;-70
2022/02/11 12:55:20;;;;;;;;;;;;;;;8.04;100.00;99377.42;1667871;85;20100;-70
2022/02/11 12:57:58;;;;;;;;;;;;;;;8.37;96.22;99384.64;1668368;85;20442;-70
2022/02/11 13:00:32;;;;;;;;;;;;;;;8.29;95.31;99380.23;1666520;84;20213;-74
2022/02/11 13:03:01;;;;;;;;;;;;;;;8.07;94.10;99376.13;1707554;83;20889;-70
2022/02/11 13:05:40;;;;;;;;;;;;;;;7.88;90.62;99385.69;1705989;83;21024;-72
2022/02/11 13:08:08;;;;;;;;;;;;;;;7.87;90.73;99379.27;1699391;83;20156;-70
2022/02/11 13:10:38;;;;;;;;;;;;;;;7.96;90.13;99376.46;1673083;84;20144;-70
2022/02/11 13:13:20;;;;;;;;;;;;;;;8.35;85.04;99386.77;1673080;85;20173;-71
2022/02/11 13:15:46;;;;;;;;;;;;;;;7.80;88.05;99391.42;1674497;84;21160;-71
2022/02/11 13:18:18;;;;;;;;;;;;;;;6.87;96.42;99388.77;1684160;83;20194;-71
2022/02/11 13:20:49;;;;;;;;;;;;;;;6.27;100.00;99388.99;1669585;85;20107;-70
2022/02/11 13:23:19;;;;;;;;;;;;;;;5.84;100.00;99382.53;1671664;83;20139;-69
2022/02/11 13:25:45;;;;;;;;;;;;;;;5.53;100.00;99395.02;1671858;83;20167;-70
2022/02/11 13:28:15;;;;;;;;;;;;;;;5.74;100.00;99401.72;1676405;84;22195;-72
2022/02/11 13:30:45;;;;;;;;;;;;;;;6.27;100.00;99401.48;1670787;85;20328;-71
2022/02/11 13:33:20;;;;;;;;;;;;;;;6.64;100.00;99408.80;1668523;83;20180;-72
2022/02/11 13:35:47;;;;;;;;;;;;;;;6.84;100.00;99407.11;1668868;85;20176;-72
2022/02/11 13:38:26;;;;;;;;;;;;;;;6.94;99.81;99415.33;1680651;83;20156;-68
2022/02/11 13:40:56;;;;;;;;;;;;;;;6.79;98.59;99413.14;1670487;85;21141;-71
2022/02/11 13:43:22;;;;;;;;;;;;;;;6.85;98.53;99410.86;1668415;85;20276;-69
2022/02/11 13:46:06;;;;;;;;;;;;;;;6.85;97.76;99412.19;1667194;85;20115;-69
2022/02/11 13:48:29;;;;;;;;;;;;;;;6.94;97.34;99409.19;1666425;85;20209;-70
2022/02/11 13:51:12;;;;;;;;;;;;;;;7.09;97.10;99408.98;1671945;84;20222;-70
2022/02/11 13:53:41;;;;;;;;;;;;;;;6.63;98.05;99409.82;1667013;83;21152;-71
2022/02/11 13:56:19;;;;;;;;;;;;;;;6.46;100.00;99401.69;1732167;81;20119;-70
2022/02/11 13:59:10;;;;;;;;;;;;;;;6.33;100.00;99405.91;1729885;81;20484;-70
2022/02/11 14:01:39;;;;;;;;;;;;;;;6.53;100.00;99401.06;1726545;82;20134;-70
2022/02/11 14:04:11;;;;;;;;;;;;;;;6.68;99.82;99399.27;1723480;81;20176;-71
2022/02/11 14:06:58;;;;;;;;;;;;;;;6.83;97.53;99399.60;1736017;81;21128;-71
2022/02/11 14:09:27;;;;;;;;;;;;;;;6.88;96.70;99402.91;1729624;82;20136;-70
2022/02/11 14:11:54;;;;;;;;;;;;;;;6.94;95.90;99411.33;1729681;82;20118;-70
2022/02/11 14:14:23;;;;;;;;;;;;;;;6.92;94.17;99408.61;1725058;82;20807;-70
2022/02/11 14:16:55;;;;;;;;;;;;;;;6.87;92.87;99418.11;1730151;82;20191;-67
2022/02/11 14:19:25;;;;;;;;;;;;;;;6.68;90.79;99416.60;1726593;81;21122;-68
2022/02/11 14:21:53;;;;;;;;;;;;;;;6.38;93.60;99418.03;1732610;82;20207;-69
2022/02/11 14:24:20;;;;;;;;;;;;;;;6.04;99.43;99423.56;1733227;82;20207;-72
2022/02/11 14:26:48;;;;;;;;;;;;;;;5.82;100.00;99411.24;1732097;81;20174;-68
2022/02/11 14:29:15;;;;;;;;;;;;;;;5.58;100.00;99416.45;1734242;81;20171;-69
2022/02/11 14:31:43;;;;;;;;;;;;;;;5.30;100.00;99411.69;1726998;82;21115;-68
2022/02/11 14:34:10;;;;;;;;;;;;;;;5.05;100.00;99415.77;1728550;81;20091;-70
2022/02/11 14:36:38;;;;;;;;;;;;;;;4.82;100.00;99418.52;1731045;82;20656;-66
2022/02/11 14:39:14;;;;;;;;;;;;;;;4.62;100.00;99420.03;1727979;82;20521;-68
2022/02/11 14:41:46;;;;;;;;;;;;;;;4.47;100.00;99419.03;1734570;82;20476;-70
2022/02/11 14:44:27;;;;;;;;;;;;;;;4.38;100.00;99420.84;1728446;81;21126;-66
2022/02/11 14:46:55;;;;;;;;;;;;;;;4.27;100.00;99424.51;1728199;81;20132;-66
2022/02/11 14:49:22;;;;;;;;;;;;;;;4.10;100.00;99425.25;1726871;82;20245;-70
2022/02/11 14:51:57;;;;;;;;;;;;;;;3.95;100.00;99426.36;1734407;81;20110;-69
2022/02/11 14:54:24;;;;;;;;;;;;;;;3.80;100.00;99432.48;1730637;82;20458;-69
2022/02/11 14:56:54;;;;;;;;;;;;;;;3.64;100.00;99431.92;1733725;81;21693;-69
2022/02/11 14:59:20;;;;;;;;;;;;;;;3.50;100.00;99435.66;1724592;82;20812;-70
2022/02/11 15:01:47;;;;;;;;;;;;;;;3.34;100.00;99436.14;1734411;81;20460;-70
2022/02/11 15:04:15;;;;;;;;;;;;;;;3.18;100.00;99433.42;1733521;81;20162;-67
2022/02/11 15:06:42;;;;;;;;;;;;;;;3.06;100.00;99439.87;1734166;82;20136;-70
2022/02/11 15:09:08;;;;;;;;;;;;;;;2.90;100.00;99439.81;1739741;82;21209;-70
2022/02/11 15:11:35;;;;;;;;;;;;;;;2.72;100.00;99438.29;1730701;82;20208;-68
2022/02/11 15:14:03;;;;;;;;;;;;;;;2.50;100.00;99441.17;1731302;81;20155;-70
2022/02/11 15:16:31;;;;;;;;;;;;;;;2.32;100.00;99440.43;1730321;82;20247;-70
2022/02/11 15:19:00;;;;;;;;;;;;;;;2.19;100.00;99444.92;1733475;81;20157;-69
2022/02/11 15:21:28;;;;;;;;;;;;;;;2.14;100.00;99449.49;1726702;81;21292;-70
2022/02/11 15:23:54;;;;;;;;;;;;;;;2.05;100.00;99461.28;1735327;81;20119;-70
2022/02/11 15:26:21;;;;;;;;;;;;;;;1.93;100.00;99457.07;1730341;81;20328;-70
2022/02/11 15:28:47;;;;;;;;;;;;;;;1.87;100.00;99461.34;1726474;81;20162;-68
2022/02/11 15:31:15;;;;;;;;;;;;;;;1.80;100.00;99459.69;1729540;81;20137;-70
2022/02/11 15:33:42;;;;;;;;;;;;;;;1.67;100.00;99455.98;1727437;81;21154;-69
2022/02/11 15:36:11;;;;;;;;;;;;;;;1.57;100.00;99453.38;1722510;81;20143;-72
2022/02/11 15:38:38;;;;;;;;;;;;;;;1.55;100.00;99454.11;1730114;82;20111;-70
2022/02/11 15:41:05;;;;;;;;;;;;;;;1.56;100.00;99461.02;1733264;81;20094;-72
2022/02/11 15:43:32;;;;;;;;;;;;;;;1.48;100.00;99469.44;1724686;81;20258;-70
2022/02/11 15:46:00;;;;;;;;;;;;;;;1.42;100.00;99465.42;1725937;81;21150;-71
2022/02/11 15:48:26;;;;;;;;;;;;;;;1.31;100.00;99472.09;1731097;81;20095;-70
2022/02/11 15:50:53;;;;;;;;;;;;;;;1.24;100.00;99473.38;1727538;81;20127;-70
2022/02/11 15:53:20;;;;;;;;;;;;;;;1.19;100.00;99475.80;1729514;81;20165;-76
2022/02/11 15:55:50;;;;;;;;;;;;;;;1.12;100.00;99480.22;1728494;80;20103;-71
2022/02/11 15:58:17;;;;;;;;;;;;;;;1.02;100.00;99488.50;1734571;80;21142;-70
2022/02/11 16:00:53;;;;;;;;;;;;;;;0.99;100.00;99492.05;1733094;82;20230;-69
2022/02/11 16:03:23;;;;;;;;;;;;;;;0.90;100.00;99486.07;1731117;82;20516;-69
2022/02/11 16:05:51;;;;;;;;;;;;;;;0.87;100.00;99490.94;1729552;81;20160;-69
2022/02/11 16:08:22;;;;;;;;;;;;;;;0.78;100.00;99491.57;1727410;81;20143;-69
2022/02/11 16:10:50;;;;;;;;;;;;;;;0.69;100.00;99490.09;1721640;82;21943;-67
2022/02/11 16:13:19;;;;;;;;;;;;;;;0.59;100.00;99493.88;1722016;82;20430;-70
2022/02/11 16:15:47;;;;;;;;;;;;;;;0.53;100.00;99488.02;1721926;82;20083;-68
2022/02/11 16:18:16;;;;;;;;;;;;;;;0.46;100.00;99492.42;1720807;83;20123;-69
2022/02/11 16:20:44;;;;;;;;;;;;;;;0.36;100.00;99488.78;1720770;82;20479;-69
2022/02/11 16:23:13;;;;;;;;;;;;;;;0.28;100.00;99476.22;1685289;83;21798;-68
2022/02/11 16:25:40;;;;;;;;;;;;;;;0.21;100.00;99470.88;1663375;85;20176;-70
2022/02/11 16:28:11;;;;;;;;;;;;;;;0.18;100.00;99473.38;1666283;84;20486;-68
2022/02/11 16:30:38;;;;;;;;;;;;;;;0.20;100.00;99467.93;1730471;81;20603;-70
2022/02/11 16:33:05;;;;;;;;;;;;;;;0.15;100.00;99474.28;1736811;81;20230;-71
2022/02/11 16:35:34;;;;;;;;;;;;;;;0.15;100.00;99474.28;1732168;81;21129;-67
2022/02/11 16:38:06;;;;;;;;;;;;;;;0.17;100.00;99480.16;1735188;82;20162;-70
2022/02/11 16:40:35;;;;;;;;;;;;;;;0.20;100.00;99478.48;1708872;82;34995;-69
2022/02/11 16:43:04;;;;;;;;;;;;;;;0.20;100.00;99479.81;1737928;81;20499;-69
2022/02/11 16:45:35;;;;;;;;;;;;;;;0.20;100.00;99474.02;1738073;81;20139;-70
2022/02/11 16:48:02;;;;;;;;;;;;;;;0.20;100.00;99480.62;1731773;81;21164;-71
2022/02/11 16:50:30;;;;;;;;;;;;;;;0.21;100.00;99484.06;1731967;82;20575;-69
2022/02/11 16:52:56;;;;;;;;;;;;;;;0.29;100.00;99482.61;1737088;82;20158;-67
2022/02/11 16:55:24;;;;;;;;;;;;;;;0.42;100.00;99485.91;1734148;81;20158;-70